Time;durP1;ratioP1;P1;durP2;ratioP2;P2;SDS_P1;SDS_P2;PMS_P1;PMS_P2;Temp;Humidity;BMP_temperature;BMP_pressure;BME280_temperature;BME280_humidity;BME280_pressure;Samples;Min_cycle;Max_cycle;Signal;HPM_P1;HPM_P2
2022/11/13 00:00:45;;;;;;;29.02;24.08;;;15.90;99.90;;;;;;4591755;19;20010;-23
2022/11/13 00:02:28;;;;;;;27.17;22.50;;;15.90;99.90;;;;;;4592816;19;20035;-22
2022/11/13 00:03:59;;;;;;;31.17;24.05;;;15.90;99.90;;;;;;4593143;19;20019;-23
2022/11/13 00:05:30;;;;;;;29.33;24.02;;;15.90;99.90;;;;;;4588788;19;20011;-23
2022/11/13 00:07:01;;;;;;;31.48;24.23;;;15.80;99.90;;;;;;4591637;19;20014;-24
2022/11/13 00:08:32;;;;;;;30.05;24.20;;;15.90;99.90;;;;;;4591391;19;20022;-26
2022/11/13 00:10:04;;;;;;;31.38;24.58;;;15.90;99.90;;;;;;4590936;19;20017;-23
2022/11/13 00:11:35;;;;;;;31.88;25.13;;;15.80;99.90;;;;;;4590113;19;20010;-22
2022/11/13 00:13:06;;;;;;;31.63;24.27;;;15.90;99.90;;;;;;4590416;19;20040;-22
2022/11/13 00:14:37;;;;;;;35.70;25.27;;;15.90;99.90;;;;;;4592776;19;20011;-22
2022/11/13 00:16:12;;;;;;;27.77;23.55;;;15.80;99.90;;;;;;4592596;19;20035;-23
2022/11/13 00:17:44;;;;;;;30.77;24.23;;;15.80;99.90;;;;;;4590401;19;20082;-23
2022/11/13 00:19:15;;;;;;;29.27;24.38;;;15.80;99.90;;;;;;4591401;19;20070;-23
2022/11/13 00:20:46;;;;;;;30.40;23.10;;;15.80;99.90;;;;;;4591475;19;20014;-25
2022/11/13 00:22:17;;;;;;;29.17;24.08;;;15.80;99.90;;;;;;4590841;19;20060;-22
2022/11/13 00:23:48;;;;;;;31.15;24.02;;;15.80;99.90;;;;;;4590443;19;20337;-24
2022/11/13 00:25:19;;;;;;;33.17;25.48;;;15.80;99.90;;;;;;4589785;19;20074;-22
2022/11/13 00:26:50;;;;;;;33.22;25.83;;;15.80;99.90;;;;;;4590306;19;20341;-23
2022/11/13 00:28:21;;;;;;;32.10;24.73;;;15.80;99.90;;;;;;4589940;19;20020;-23
2022/11/13 00:29:53;;;;;;;32.13;24.50;;;15.80;99.90;;;;;;4592433;19;20010;-23
2022/11/13 00:31:24;;;;;;;30.23;23.38;;;15.80;99.90;;;;;;4591586;19;20018;-24
2022/11/13 00:32:55;;;;;;;31.20;24.20;;;15.80;99.90;;;;;;4591885;19;20017;-23
2022/11/13 00:34:26;;;;;;;31.42;24.92;;;15.80;99.90;;;;;;4589886;19;20014;-22
2022/11/13 00:36:09;;;;;;;30.70;24.70;;;15.80;99.90;;;;;;4590375;19;20037;-23
2022/11/13 00:37:40;;;;;;;30.75;23.05;;;15.80;99.90;;;;;;4589300;19;20342;-26
2022/11/13 00:39:11;;;;;;;31.00;23.67;;;15.80;99.90;;;;;;4590398;19;20358;-24
2022/11/13 00:40:42;;;;;;;30.83;24.45;;;15.80;99.90;;;;;;4589832;19;20014;-23
2022/11/13 00:42:13;;;;;;;28.90;22.15;;;15.80;99.90;;;;;;4589688;19;20010;-24
2022/11/13 00:43:44;;;;;;;26.13;22.13;;;15.80;99.90;;;;;;4589694;19;20013;-23
2022/11/13 00:45:15;;;;;;;31.08;25.30;;;15.80;99.90;;;;;;4591937;19;20031;-23
2022/11/13 00:46:46;;;;;;;32.85;25.75;;;15.80;99.90;;;;;;4591787;19;20010;-24
2022/11/13 00:48:18;;;;;;;30.83;26.23;;;15.80;99.90;;;;;;4590799;19;20042;-21
2022/11/13 00:49:49;;;;;;;29.65;24.08;;;15.80;99.90;;;;;;4591467;19;20013;-23
2022/11/13 00:51:20;;;;;;;27.65;23.35;;;15.80;99.90;;;;;;4590587;19;20010;-22
2022/11/13 00:52:51;;;;;;;30.08;23.48;;;15.80;99.90;;;;;;4590209;19;20017;-23
2022/11/13 00:54:22;;;;;;;31.75;24.83;;;15.80;99.90;;;;;;4589956;19;20016;-28
2022/11/13 00:55:53;;;;;;;35.33;26.75;;;15.80;99.90;;;;;;4589448;19;20050;-22
2022/11/13 00:57:24;;;;;;;33.55;27.08;;;15.80;99.90;;;;;;4589243;19;20353;-23
2022/11/13 00:58:55;;;;;;;37.88;28.48;;;15.80;99.90;;;;;;4591040;19;20014;-24
2022/11/13 01:00:27;;;;;;;34.75;26.50;;;15.80;99.90;;;;;;4590660;19;20018;-22
2022/11/13 01:01:58;;;;;;;34.33;27.23;;;15.80;99.90;;;;;;4590926;19;20018;-23
2022/11/13 01:03:29;;;;;;;32.88;25.13;;;15.80;99.90;;;;;;4591102;19;20018;-24
2022/11/13 01:05:02;;;;;;;33.17;26.02;;;15.80;99.90;;;;;;4590439;19;20014;-26
2022/11/13 01:06:33;;;;;;;35.50;26.73;;;15.80;99.90;;;;;;4589434;19;20038;-22
2022/11/13 01:08:04;;;;;;;34.63;26.42;;;15.80;99.90;;;;;;4589205;19;20018;-23
2022/11/13 01:09:35;;;;;;;31.50;24.55;;;15.80;99.90;;;;;;4591792;19;20075;-23
2022/11/13 01:11:11;;;;;;;33.25;25.40;;;15.80;99.90;;;;;;4591183;19;20030;-28
2022/11/13 01:12:42;;;;;;;38.95;28.50;;;15.80;99.90;;;;;;4591610;19;20031;-23
2022/11/13 01:14:13;;;;;;;40.00;29.50;;;15.80;99.90;;;;;;4590630;19;20018;-22
2022/11/13 01:15:44;;;;;;;46.35;32.08;;;15.80;99.90;;;;;;4589270;19;20014;-24
2022/11/13 01:17:16;;;;;;;46.30;33.65;;;15.70;99.90;;;;;;4588878;19;20011;-22
2022/11/13 01:18:47;;;;;;;39.10;30.67;;;15.80;99.90;;;;;;4588646;19;20046;-24
2022/11/13 01:20:18;;;;;;;34.17;27.80;;;15.80;99.90;;;;;;4589313;19;20493;-23
2022/11/13 01:21:49;;;;;;;37.55;27.77;;;15.70;99.90;;;;;;4588622;19;20364;-22
2022/11/13 01:23:20;;;;;;;40.72;30.23;;;15.70;99.90;;;;;;4589396;19;20015;-23
2022/11/13 01:24:52;;;;;;;48.90;35.20;;;15.80;99.90;;;;;;4591297;19;20022;-27
2022/11/13 01:26:25;;;;;;;56.67;37.63;;;15.80;99.90;;;;;;4590982;19;20010;-23
2022/11/13 01:27:56;;;;;;;47.53;34.85;;;15.80;99.90;;;;;;4590615;19;20014;-23
2022/11/13 01:29:27;;;;;;;38.58;29.65;;;15.70;99.90;;;;;;4589149;19;20088;-23
2022/11/13 01:30:59;;;;;;;35.03;27.30;;;15.70;99.90;;;;;;4589222;19;20181;-23
2022/11/13 01:32:30;;;;;;;32.08;24.30;;;15.70;99.90;;;;;;4589383;19;20475;-24
2022/11/13 01:34:01;;;;;;;31.60;24.83;;;15.70;99.90;;;;;;4589343;19;20354;-24
2022/11/13 01:35:32;;;;;;;30.33;24.73;;;15.70;99.90;;;;;;4586361;19;20334;-23
2022/11/13 01:37:03;;;;;;;29.48;23.08;;;15.70;99.90;;;;;;4587600;19;20058;-23
2022/11/13 01:38:34;;;;;;;28.17;23.48;;;15.70;99.90;;;;;;4587780;19;20014;-24
2022/11/13 01:40:06;;;;;;;29.80;24.45;;;15.70;99.90;;;;;;4590090;19;20088;-23
2022/11/13 01:41:37;;;;;;;28.67;24.88;;;15.70;99.90;;;;;;4589349;19;20492;-23
2022/11/13 01:43:31;;;;;;;31.27;24.35;;;15.70;99.90;;;;;;4589632;19;20043;-23
2022/11/13 01:45:03;;;;;;;32.10;24.70;;;15.70;99.90;;;;;;4590503;19;20023;-23
2022/11/13 01:46:37;;;;;;;30.45;23.77;;;15.70;99.90;;;;;;4589971;19;20011;-23
2022/11/13 01:48:09;;;;;;;30.83;24.05;;;15.70;99.90;;;;;;4588501;19;20032;-23
2022/11/13 01:49:41;;;;;;;33.67;24.88;;;15.70;99.90;;;;;;4589161;19;20010;-22
2022/11/13 01:51:20;;;;;;;29.48;24.58;;;15.70;99.90;;;;;;4587999;19;20357;-23
2022/11/13 01:52:51;;;;;;;31.42;24.27;;;15.70;99.90;;;;;;4587746;19;20435;-22
2022/11/13 01:54:33;;;;;;;33.33;25.63;;;15.70;99.90;;;;;;4588000;19;20007;-25
2022/11/13 01:56:06;;;;;;;30.52;24.10;;;15.70;99.90;;;;;;4587173;19;20011;-22
2022/11/13 01:57:37;;;;;;;30.02;23.60;;;15.70;99.90;;;;;;4587164;19;20480;-24
2022/11/13 01:59:12;;;;;;;32.97;26.42;;;15.70;99.90;;;;;;4588007;19;20039;-23
2022/11/13 02:00:43;;;;;;;29.75;24.90;;;15.70;99.90;;;;;;4587321;19;20021;-23
2022/11/13 02:02:14;;;;;;;36.25;27.77;;;15.70;99.90;;;;;;4590175;19;20015;-23
2022/11/13 02:03:45;;;;;;;36.85;28.95;;;15.70;99.90;;;;;;4590183;19;20033;-23
2022/11/13 02:05:16;;;;;;;35.40;28.25;;;15.70;99.90;;;;;;4587329;19;20466;-24
2022/11/13 02:06:55;;;;;;;35.17;26.63;;;15.70;99.90;;;;;;4588934;19;20188;-23
2022/11/13 02:08:27;;;;;;;33.92;26.65;;;15.70;99.90;;;;;;4588045;19;20057;-23
2022/11/13 02:09:58;;;;;;;30.67;25.10;;;15.70;99.90;;;;;;4587715;19;20377;-24
2022/11/13 02:11:29;;;;;;;32.08;24.90;;;15.70;99.90;;;;;;4587087;19;20003;-23
2022/11/13 02:13:00;;;;;;;33.17;26.42;;;15.70;99.90;;;;;;4590309;19;20031;-23
2022/11/13 02:14:32;;;;;;;33.25;25.17;;;15.70;99.90;;;;;;4590163;19;20018;-22
2022/11/13 02:16:03;;;;;;;29.13;23.33;;;15.70;99.90;;;;;;4588630;19;20349;-24
2022/11/13 02:17:43;;;;;;;31.88;25.52;;;15.70;99.90;;;;;;4588427;19;20018;-23
2022/11/13 02:19:19;;;;;;;30.25;25.25;;;15.70;99.90;;;;;;4589255;19;20472;-22
2022/11/13 02:20:59;;;;;;;32.28;26.23;;;15.70;99.90;;;;;;4589262;19;20010;-23
2022/11/13 02:22:55;;;;;;;32.30;26.65;;;15.70;99.90;;;;;;4587864;19;20069;-25
2022/11/13 02:24:28;;;;;;;29.45;23.83;;;15.70;99.90;;;;;;4589357;19;20014;-23
2022/11/13 02:26:00;;;;;;;27.73;23.63;;;15.70;99.90;;;;;;4588305;19;20078;-24
2022/11/13 02:27:35;;;;;;;28.10;24.67;;;15.70;99.90;;;;;;4588872;19;20018;-22
2022/11/13 02:29:06;;;;;;;30.80;25.58;;;15.70;99.90;;;;;;4589735;19;20014;-23
2022/11/13 02:30:37;;;;;;;30.08;24.95;;;15.70;99.90;;;;;;4591580;19;20007;-22
2022/11/13 02:32:09;;;;;;;27.88;24.85;;;15.70;99.90;;;;;;4592150;19;20034;-24
2022/11/13 02:33:40;;;;;;;27.80;23.08;;;15.70;99.90;;;;;;4592267;19;20014;-25
2022/11/13 02:35:12;;;;;;;29.25;24.95;;;15.70;99.90;;;;;;4592358;19;20025;-23
2022/11/13 02:36:43;;;;;;;27.38;23.60;;;15.70;99.90;;;;;;4594865;19;20007;-23
2022/11/13 02:38:15;;;;;;;28.45;24.23;;;15.70;99.90;;;;;;4592747;19;20472;-22
2022/11/13 02:39:46;;;;;;;28.80;23.05;;;15.70;99.90;;;;;;4593709;19;20464;-23
2022/11/13 02:41:17;;;;;;;28.02;24.75;;;15.70;99.90;;;;;;4593899;19;20007;-26
2022/11/13 02:42:48;;;;;;;28.90;24.33;;;15.70;99.90;;;;;;4593113;19;20022;-23
2022/11/13 02:44:19;;;;;;;29.65;24.05;;;15.70;99.90;;;;;;4593468;19;20055;-23
2022/11/13 02:45:51;;;;;;;27.45;23.10;;;15.70;99.90;;;;;;4592372;19;20011;-22
2022/11/13 02:47:22;;;;;;;29.23;25.50;;;15.60;99.90;;;;;;4592043;19;20022;-23
2022/11/13 02:48:53;;;;;;;28.65;24.77;;;15.70;99.90;;;;;;4590593;19;20078;-24
2022/11/13 02:50:43;;;;;;;26.17;23.30;;;15.70;99.90;;;;;;4595009;19;20014;-23
2022/11/13 02:52:14;;;;;;;27.60;22.60;;;15.70;99.90;;;;;;4592136;19;20010;-22
2022/11/13 02:53:45;;;;;;;28.70;23.92;;;15.60;99.90;;;;;;4593180;19;20498;-23
2022/11/13 02:55:17;;;;;;;28.00;23.27;;;15.70;99.90;;;;;;4593021;19;20018;-23
2022/11/13 02:56:48;;;;;;;26.60;23.67;;;15.70;99.90;;;;;;4593840;19;20100;-24
2022/11/13 02:58:19;;;;;;;27.95;22.50;;;15.60;99.90;;;;;;4591305;19;20027;-26
2022/11/13 02:59:50;;;;;;;25.67;22.88;;;15.70;99.90;;;;;;4592509;19;20014;-24
2022/11/13 03:01:21;;;;;;;25.25;21.75;;;15.70;99.90;;;;;;4592792;19;20022;-23
2022/11/13 03:02:54;;;;;;;26.08;21.73;;;15.60;99.90;;;;;;4592314;19;20022;-27
2022/11/13 03:04:25;;;;;;;29.50;23.42;;;15.70;99.90;;;;;;4591127;19;20632;-23
2022/11/13 03:05:56;;;;;;;24.30;21.55;;;15.60;99.90;;;;;;4591593;19;20010;-23
2022/11/13 03:09:17;;;;;;;24.80;21.73;;;15.60;99.90;;;;;;4593991;19;20042;-24
2022/11/13 03:10:48;;;;;;;26.52;22.90;;;15.60;99.90;;;;;;4593270;19;20022;-27
2022/11/13 03:12:19;;;;;;;26.90;22.88;;;15.60;99.90;;;;;;4593595;19;20010;-24
2022/11/13 03:13:50;;;;;;;27.05;23.23;;;15.60;99.90;;;;;;4592878;19;20002;-23
2022/11/13 03:15:22;;;;;;;25.20;21.90;;;15.70;99.90;;;;;;4593634;19;20034;-23
2022/11/13 03:16:53;;;;;;;30.55;24.88;;;15.70;99.90;;;;;;4593180;19;20505;-22
2022/11/13 03:18:24;;;;;;;26.42;23.33;;;15.70;99.90;;;;;;4592266;19;20011;-24
2022/11/13 03:19:55;;;;;;;27.00;22.30;;;15.70;99.90;;;;;;4593810;19;20400;-23
2022/11/13 03:21:27;;;;;;;26.35;22.88;;;15.70;99.90;;;;;;4592984;19;20015;-23
2022/11/13 03:22:58;;;;;;;28.10;23.35;;;15.60;99.90;;;;;;4592977;19;20038;-24
2022/11/13 03:24:29;;;;;;;27.55;23.40;;;15.70;99.90;;;;;;4593318;19;20010;-24
2022/11/13 03:26:07;;;;;;;27.55;22.92;;;15.70;99.90;;;;;;4593269;19;20037;-23
2022/11/13 03:27:38;;;;;;;28.65;23.25;;;15.60;99.90;;;;;;4592856;19;20038;-24
2022/11/13 03:29:09;;;;;;;29.63;23.75;;;15.70;99.90;;;;;;4592914;19;20018;-24
2022/11/13 03:30:40;;;;;;;30.25;24.15;;;15.70;99.90;;;;;;4592984;19;20344;-26
2022/11/13 03:32:11;;;;;;;28.33;23.25;;;15.60;99.90;;;;;;4593278;19;20026;-23
2022/11/13 03:33:43;;;;;;;28.02;23.13;;;15.70;99.90;;;;;;4592686;19;20052;-24
2022/11/13 03:35:14;;;;;;;30.48;24.25;;;15.70;99.90;;;;;;4592922;19;20014;-23
2022/11/13 03:36:45;;;;;;;31.45;24.67;;;15.70;99.90;;;;;;4592929;19;20019;-23
2022/11/13 03:38:16;;;;;;;30.08;24.55;;;15.70;99.90;;;;;;4592213;19;20491;-23
2022/11/13 03:39:48;;;;;;;31.83;24.15;;;15.70;99.90;;;;;;4592363;19;20094;-22
2022/11/13 03:45:17;;;;;;;29.65;24.13;;;15.70;99.90;;;;;;4592957;19;20082;-23
2022/11/13 03:47:04;;;;;;;30.88;24.52;;;15.70;99.90;;;;;;4592899;19;20011;-23
2022/11/13 03:48:50;;;;;;;30.70;23.88;;;15.70;99.90;;;;;;4591767;19;20112;-23
2022/11/13 03:50:22;;;;;;;30.05;23.77;;;15.70;99.90;;;;;;4592370;19;20438;-26
2022/11/13 03:51:53;;;;;;;31.38;24.00;;;15.60;99.90;;;;;;4592942;19;20038;-22
2022/11/13 03:53:24;;;;;;;31.00;24.75;;;15.60;99.90;;;;;;4591722;19;20005;-24
2022/11/13 03:54:55;;;;;;;29.45;25.45;;;15.60;99.90;;;;;;4591259;19;20011;-23
2022/11/13 03:56:26;;;;;;;;;;;15.60;99.90;;;;;;4592710;19;20040;-23
2022/11/13 03:57:57;;;;;;;30.85;23.63;;;15.60;99.90;;;;;;4590742;19;19914;-22
2022/11/13 03:59:28;;;;;;;29.05;24.33;;;15.60;99.90;;;;;;4591972;19;20011;-23
2022/11/13 04:00:59;;;;;;;32.35;24.23;;;15.60;99.90;;;;;;4592221;19;20014;-23
2022/11/13 04:02:31;;;;;;;30.40;24.40;;;15.60;99.90;;;;;;4592229;19;20051;-23
2022/11/13 04:04:02;;;;;;;30.25;24.08;;;15.60;99.90;;;;;;4592110;19;20460;-24
2022/11/13 04:05:33;;;;;;;29.38;25.00;;;15.60;99.90;;;;;;4592859;19;20065;-22
2022/11/13 04:07:04;;;;;;;30.10;24.13;;;15.60;99.90;;;;;;4590978;19;20411;-23
2022/11/13 04:08:35;;;;;;;29.77;24.45;;;15.60;99.90;;;;;;4591692;19;20021;-26
2022/11/13 04:10:07;;;;;;;27.83;23.70;;;15.60;99.90;;;;;;4592635;19;20034;-22
2022/11/13 04:11:38;;;;;;;29.15;24.35;;;15.60;99.90;;;;;;4592309;19;20334;-22
2022/11/13 04:13:09;;;;;;;28.70;23.95;;;15.60;99.90;;;;;;4592130;19;20018;-22
2022/11/13 04:14:40;;;;;;;29.38;25.20;;;15.60;99.90;;;;;;4590855;19;20086;-23
2022/11/13 04:16:11;;;;;;;30.88;25.60;;;15.60;99.90;;;;;;4592042;19;20010;-24
2022/11/13 04:17:42;;;;;;;33.28;25.90;;;15.60;99.90;;;;;;4591632;19;20025;-22
2022/11/13 04:19:13;;;;;;;32.17;26.05;;;15.60;99.90;;;;;;4591910;19;20007;-21
2022/11/13 04:20:45;;;;;;;32.50;25.13;;;15.60;99.90;;;;;;4592001;19;20015;-22
2022/11/13 04:22:16;;;;;;;32.38;26.00;;;15.60;99.90;;;;;;4592748;19;20034;-24
2022/11/13 04:23:47;;;;;;;32.15;27.48;;;15.60;99.90;;;;;;4591801;19;20034;-24
2022/11/13 04:25:18;;;;;;;33.13;26.30;;;15.60;99.90;;;;;;4590802;19;20014;-22
2022/11/13 04:26:49;;;;;;;34.63;26.85;;;15.60;99.90;;;;;;4590923;19;20014;-22
2022/11/13 04:28:20;;;;;;;33.97;26.55;;;15.60;99.90;;;;;;4591607;19;20017;-23
2022/11/13 04:29:51;;;;;;;35.80;25.92;;;15.60;99.90;;;;;;4591576;19;20374;-23
2022/11/13 04:31:22;;;;;;;32.92;27.23;;;15.60;99.90;;;;;;4590778;19;20062;-23
2022/11/13 04:32:54;;;;;;;31.75;25.85;;;15.60;99.90;;;;;;4591644;19;20021;-23
2022/11/13 04:34:25;;;;;;;27.60;24.30;;;15.60;99.90;;;;;;4591503;19;20066;-23
2022/11/13 04:35:56;;;;;;;28.00;23.70;;;15.60;99.90;;;;;;4591517;19;20361;-23
2022/11/13 04:37:27;;;;;;;29.05;24.48;;;15.60;99.90;;;;;;4590347;19;20014;-25
2022/11/13 04:38:58;;;;;;;30.42;24.60;;;15.60;99.90;;;;;;4589367;19;20417;-23
2022/11/13 04:40:29;;;;;;;29.67;24.17;;;15.60;99.90;;;;;;4590947;19;20010;-23
2022/11/13 04:43:50;;;;;;;28.63;23.80;;;15.60;99.90;;;;;;4590382;19;20039;-23
2022/11/13 04:45:22;;;;;;;29.70;25.33;;;15.60;99.90;;;;;;4591933;19;20019;-23
2022/11/13 04:46:53;;;;;;;;;;;15.60;99.90;;;;;;4590942;19;20070;-23
2022/11/13 04:48:24;;;;;;;29.73;24.35;;;15.60;99.90;;;;;;4590080;19;19930;-23
2022/11/13 04:49:55;;;;;;;32.50;24.92;;;15.60;99.90;;;;;;4591131;19;20018;-23
2022/11/13 04:51:26;;;;;;;30.65;24.52;;;15.60;99.90;;;;;;4590387;19;20091;-23
2022/11/13 04:52:57;;;;;;;27.67;22.83;;;15.60;99.90;;;;;;4590940;19;20010;-23
2022/11/13 04:54:28;;;;;;;32.38;24.70;;;15.60;99.90;;;;;;4591049;19;20031;-24
2022/11/13 04:55:59;;;;;;;27.75;23.80;;;15.60;99.90;;;;;;4591353;19;20343;-23
2022/11/13 04:57:30;;;;;;;27.10;23.63;;;15.60;99.90;;;;;;4591750;19;20079;-23
2022/11/13 04:59:02;;;;;;;29.52;24.88;;;15.60;99.90;;;;;;4588818;19;20031;-23
2022/11/13 05:00:33;;;;;;;28.38;23.92;;;15.60;99.90;;;;;;4591166;19;20476;-25
2022/11/13 05:02:04;;;;;;;29.20;24.80;;;15.60;99.90;;;;;;4591724;19;20010;-23
2022/11/13 05:03:36;;;;;;;28.83;25.35;;;15.60;99.90;;;;;;4590719;19;20104;-22
2022/11/13 05:05:07;;;;;;;32.42;26.80;;;15.60;99.90;;;;;;4589817;19;20073;-22
2022/11/13 05:06:38;;;;;;;37.17;28.80;;;15.60;99.90;;;;;;4590748;19;20014;-22
2022/11/13 05:08:10;;;;;;;37.13;28.50;;;15.60;99.90;;;;;;4591403;19;20017;-23
2022/11/13 05:09:41;;;;;;;33.40;25.85;;;15.60;99.90;;;;;;4590768;19;20014;-23
2022/11/13 05:11:12;;;;;;;31.23;25.58;;;15.60;99.90;;;;;;4591237;19;20038;-24
2022/11/13 05:12:43;;;;;;;31.13;25.65;;;15.60;99.90;;;;;;4590927;19;20026;-22
2022/11/13 05:14:14;;;;;;;29.83;25.20;;;15.60;99.90;;;;;;4589801;19;20387;-23
2022/11/13 05:15:45;;;;;;;28.27;24.75;;;15.60;99.90;;;;;;4590442;19;20010;-23
2022/11/13 05:17:16;;;;;;;28.55;24.42;;;15.60;99.90;;;;;;4591066;19;20027;-25
2022/11/13 05:18:47;;;;;;;31.70;25.90;;;15.60;99.90;;;;;;4589687;19;20002;-22
2022/11/13 05:20:19;;;;;;;29.83;25.40;;;15.60;99.90;;;;;;4591155;19;20010;-23
2022/11/13 05:21:50;;;;;;;32.40;28.05;;;15.60;99.90;;;;;;4590804;19;20021;-22
2022/11/13 05:23:21;;;;;;;31.27;26.60;;;15.60;99.90;;;;;;4590664;19;20013;-23
2022/11/13 05:24:52;;;;;;;30.10;25.60;;;15.60;99.90;;;;;;4591198;19;20006;-22
2022/11/13 05:26:25;;;;;;;28.40;23.95;;;15.60;99.90;;;;;;4589376;19;20018;-22
2022/11/13 05:27:57;;;;;;;25.98;22.85;;;15.60;99.90;;;;;;4590303;19;20025;-22
2022/11/13 05:29:27;;;;;;;;;;;15.60;99.90;;;;;;4591870;19;20017;-23
2022/11/13 05:31:17;;;;;;;25.38;22.20;;;15.60;99.90;;;;;;4590702;19;19978;-22
2022/11/13 05:32:48;;;;;;;27.58;23.17;;;15.60;99.90;;;;;;4590319;19;20014;-23
2022/11/13 05:34:19;;;;;;;25.95;21.85;;;15.60;99.90;;;;;;4590703;19;20011;-23
2022/11/13 05:35:50;;;;;;;27.90;22.83;;;15.60;99.90;;;;;;4589592;19;20026;-23
2022/11/13 05:37:21;;;;;;;27.75;23.20;;;15.60;99.90;;;;;;4589994;19;20011;-23
2022/11/13 05:38:52;;;;;;;26.67;22.77;;;15.60;99.90;;;;;;4589456;19;20093;-23
2022/11/13 05:40:24;;;;;;;27.35;23.65;;;15.60;99.90;;;;;;4590589;19;20040;-23
2022/11/13 05:41:55;;;;;;;26.48;22.50;;;15.60;99.90;;;;;;4590213;19;20017;-23
2022/11/13 05:43:26;;;;;;;26.23;21.90;;;15.60;99.90;;;;;;4590491;19;20417;-22
2022/11/13 05:44:57;;;;;;;26.95;22.52;;;15.60;99.90;;;;;;4590258;19;20010;-23
2022/11/13 05:46:28;;;;;;;25.63;22.10;;;15.60;99.90;;;;;;4590594;19;20017;-23
2022/11/13 05:48:00;;;;;;;24.98;22.33;;;15.60;99.90;;;;;;4590182;19;20369;-23
2022/11/13 05:49:31;;;;;;;24.20;21.58;;;15.60;99.90;;;;;;4589283;19;20033;-23
2022/11/13 05:51:02;;;;;;;24.20;21.55;;;15.60;99.90;;;;;;4590428;19;20487;-23
2022/11/13 05:52:33;;;;;;;23.75;21.20;;;15.60;99.90;;;;;;4590379;19;20084;-22
2022/11/13 05:54:05;;;;;;;24.27;20.38;;;15.60;99.90;;;;;;4590353;19;20346;-24
2022/11/13 05:55:36;;;;;;;;;;;15.60;99.90;;;;;;4590871;19;20021;-22
2022/11/13 05:57:07;;;;;;;25.05;20.77;;;15.60;99.90;;;;;;4590008;19;19915;-23
2022/11/13 05:58:38;;;;;;;26.55;22.15;;;15.60;99.90;;;;;;4589393;19;20082;-22
2022/11/13 06:00:10;;;;;;;28.65;22.20;;;15.60;99.90;;;;;;4589516;19;20456;-22
2022/11/13 06:01:41;;;;;;;;;;;15.60;99.90;;;;;;4590726;19;20487;-24
2022/11/13 06:03:12;;;;;;;24.83;22.17;;;15.60;99.90;;;;;;4590394;19;19978;-23
2022/11/13 06:04:43;;;;;;;26.13;22.42;;;15.60;99.90;;;;;;4594283;19;20363;-23
2022/11/13 06:06:16;;;;;;;24.75;22.13;;;15.60;99.90;;;;;;4594916;19;20412;-25
2022/11/13 06:07:50;;;;;;;25.95;22.27;;;15.60;99.90;;;;;;4593610;19;20571;-22
2022/11/13 06:09:21;;;;;;;27.13;23.63;;;15.60;99.90;;;;;;4594249;19;20048;-23
2022/11/13 06:10:56;;;;;;;25.33;22.58;;;15.60;99.90;;;;;;4595422;19;20444;-23
2022/11/13 06:12:29;;;;;;;28.40;22.88;;;15.60;99.90;;;;;;4593299;19;20382;-22
2022/11/13 06:14:01;;;;;;;26.42;23.00;;;15.60;99.90;;;;;;4593315;19;20011;-23
2022/11/13 06:15:32;;;;;;;28.63;23.55;;;15.60;99.90;;;;;;4593505;19;20014;-23
2022/11/13 06:17:03;;;;;;;28.10;23.10;;;15.60;99.90;;;;;;4594212;19;20014;-25
2022/11/13 06:18:34;;;;;;;27.92;22.38;;;15.60;99.90;;;;;;4593205;19;20007;-23
2022/11/13 06:20:06;;;;;;;29.15;22.48;;;15.60;99.90;;;;;;4594534;19;20058;-24
2022/11/13 06:21:38;;;;;;;28.75;22.73;;;15.60;99.90;;;;;;4594736;19;20021;-22
2022/11/13 06:23:09;;;;;;;26.30;22.00;;;15.60;99.90;;;;;;4595111;19;20015;-26
2022/11/13 06:24:40;;;;;;;25.55;22.80;;;15.60;99.90;;;;;;4594099;19;20034;-23
2022/11/13 06:26:19;;;;;;;25.25;22.10;;;15.60;99.90;;;;;;4594616;19;20514;-23
2022/11/13 06:27:51;;;;;;;28.00;22.98;;;15.60;99.90;;;;;;4593988;19;20010;-23
2022/11/13 06:29:22;;;;;;;26.17;22.38;;;15.60;99.90;;;;;;4594414;19;20385;-23
2022/11/13 06:30:54;;;;;;;27.15;23.45;;;15.60;99.90;;;;;;4594174;19;20011;-22
2022/11/13 06:32:25;;;;;;;25.30;22.55;;;15.60;99.90;;;;;;4594372;19;20472;-22
2022/11/13 06:33:56;;;;;;;27.60;23.30;;;15.60;99.90;;;;;;4591468;19;20010;-23
2022/11/13 06:35:28;;;;;;;28.80;24.13;;;15.60;99.90;;;;;;4593012;19;20007;-23
2022/11/13 06:36:59;;;;;;;27.25;23.83;;;15.60;99.90;;;;;;4593674;19;20010;-27
2022/11/13 06:38:31;;;;;;;29.27;24.35;;;15.60;99.90;;;;;;4592992;19;20493;-24
2022/11/13 06:40:03;;;;;;;28.38;23.58;;;15.60;99.90;;;;;;4593094;19;20017;-23
2022/11/13 06:43:25;;;;;;;29.40;25.80;;;15.60;99.90;;;;;;4593686;19;20010;-23
2022/11/13 06:44:56;;;;;;;30.30;26.38;;;15.60;99.90;;;;;;4593834;19;20014;-23
2022/11/13 06:46:28;;;;;;;33.95;26.75;;;15.60;99.90;;;;;;4594344;19;20017;-25
2022/11/13 06:48:00;;;;;;;31.58;26.63;;;15.60;99.90;;;;;;4593800;19;20468;-23
2022/11/13 06:49:31;;;;;;;31.38;25.50;;;15.60;99.90;;;;;;4591010;19;20021;-25
2022/11/13 06:51:04;;;;;;;31.95;26.75;;;15.60;99.90;;;;;;4593035;19;20014;-24
2022/11/13 06:52:35;;;;;;;32.60;27.20;;;15.60;99.90;;;;;;4594115;19;20066;-26
2022/11/13 06:54:06;;;;;;;30.35;25.10;;;15.60;99.90;;;;;;4593410;19;20042;-23
2022/11/13 06:55:44;;;;;;;34.20;27.20;;;15.60;99.90;;;;;;4588464;19;20033;-24
2022/11/13 06:57:15;;;;;;;32.67;27.13;;;15.70;99.90;;;;;;4590391;19;20391;-23
2022/11/13 06:58:46;;;;;;;32.55;26.73;;;15.70;99.90;;;;;;4590661;19;20026;-24
2022/11/13 07:00:35;;;;;;;32.63;27.42;;;15.70;99.90;;;;;;4590900;19;20022;-23
2022/11/13 07:02:22;;;;;;;32.05;26.27;;;15.80;99.90;;;;;;4592202;19;20373;-25
2022/11/13 07:03:54;;;;;;;30.98;26.42;;;15.80;99.90;;;;;;4592301;19;20450;-22
2022/11/13 07:05:35;;;;;;;34.80;28.27;;;15.80;99.90;;;;;;4590440;19;20404;-24
2022/11/13 07:07:11;;;;;;;33.00;28.38;;;15.80;99.90;;;;;;4591573;19;20022;-23
2022/11/13 07:08:44;;;;;;;37.47;28.85;;;15.80;99.90;;;;;;4592396;19;20014;-24
2022/11/13 07:10:16;;;;;;;33.15;28.17;;;15.80;99.90;;;;;;4592892;19;20387;-23
2022/11/13 07:11:47;;;;;;;;;;;15.80;99.90;;;;;;4593189;19;20034;-25
2022/11/13 07:13:19;;;;;;;30.85;26.25;;;15.80;99.90;;;;;;4592205;19;19937;-23
2022/11/13 07:14:50;;;;;;;34.63;27.10;;;15.80;99.90;;;;;;4591300;19;20345;-24
2022/11/13 07:16:22;;;;;;;35.67;29.45;;;15.80;99.90;;;;;;4593425;19;20039;-24
2022/11/13 07:17:54;;;;;;;34.70;27.75;;;15.80;99.90;;;;;;4591791;19;20026;-23
2022/11/13 07:19:26;;;;;;;34.03;27.10;;;15.80;99.90;;;;;;4593975;19;20044;-22
2022/11/13 07:21:02;;;;;;;34.85;28.63;;;15.80;99.90;;;;;;4592330;19;20023;-25
2022/11/13 07:22:34;;;;;;;33.95;27.67;;;15.80;99.90;;;;;;4593404;19;20022;-23
2022/11/13 07:24:06;;;;;;;33.30;27.65;;;15.80;99.90;;;;;;4591944;19;20366;-23
2022/11/13 07:25:37;;;;;;;36.45;28.67;;;15.80;99.90;;;;;;4592334;19;20460;-24
2022/11/13 07:27:08;;;;;;;33.28;27.63;;;15.70;99.90;;;;;;4592633;19;20013;-23
2022/11/13 07:28:39;;;;;;;34.72;28.50;;;15.70;99.90;;;;;;4592112;19;20014;-23
2022/11/13 07:30:11;;;;;;;31.27;26.55;;;15.80;99.90;;;;;;4593127;19;20030;-23
2022/11/13 07:31:42;;;;;;;;;;;15.80;99.90;;;;;;4592758;19;20508;-25
2022/11/13 07:33:13;;;;;;;34.85;28.27;;;15.90;99.90;;;;;;4591726;19;19919;-22
2022/11/13 07:34:44;;;;;;;34.90;27.55;;;15.90;99.90;;;;;;4593007;19;20029;-24
2022/11/13 07:36:16;;;;;;;32.45;26.80;;;16.00;99.90;;;;;;4592506;19;20382;-23
2022/11/13 07:37:47;;;;;;;32.50;25.02;;;16.10;99.90;;;;;;4592977;19;20018;-23
2022/11/13 07:39:18;;;;;;;29.67;24.13;;;16.10;99.90;;;;;;4591083;19;20014;-26
2022/11/13 07:40:50;;;;;;;32.95;26.20;;;16.20;99.90;;;;;;4593137;19;20467;-26
2022/11/13 07:42:21;;;;;;;31.55;25.85;;;16.20;99.90;;;;;;4592754;19;20027;-23
2022/11/13 07:43:52;;;;;;;28.67;24.67;;;16.30;99.90;;;;;;4589223;19;20003;-26
2022/11/13 07:45:23;;;;;;;31.08;25.38;;;16.30;99.90;;;;;;4592035;19;20014;-24
2022/11/13 07:46:54;;;;;;;30.65;24.17;;;16.40;99.90;;;;;;4590927;19;20082;-23
2022/11/13 07:48:26;;;;;;;29.15;24.33;;;16.40;99.90;;;;;;4591498;19;20029;-23
2022/11/13 07:49:57;;;;;;;30.58;23.55;;;16.50;99.90;;;;;;4591800;19;20015;-22
2022/11/13 07:51:28;;;;;;;32.03;24.75;;;16.60;99.90;;;;;;4593545;19;20028;-23
2022/11/13 07:53:02;;;;;;;29.17;23.90;;;16.70;99.90;;;;;;4592630;19;20014;-25
2022/11/13 07:54:34;;;;;;;27.70;22.88;;;16.70;99.90;;;;;;4591993;19;20022;-27
2022/11/13 07:56:07;;;;;;;31.60;24.58;;;16.70;99.90;;;;;;4590891;19;20026;-23
2022/11/13 07:57:39;;;;;;;30.50;24.55;;;16.80;99.90;;;;;;4592682;19;20015;-24